createdAt,value
2023-01-03T00:01:38.409Z,11.40
2023-01-03T00:04:06.856Z,11.50
2023-01-03T00:06:37.406Z,11.40
2023-01-03T00:09:10.414Z,11.40
2023-01-03T00:11:58.447Z,11.40
2023-01-03T00:14:33.573Z,11.40
2023-01-03T00:17:06.583Z,11.30
2023-01-03T00:19:41.570Z,11.30
2023-01-03T00:22:14.379Z,11.20
2023-01-03T00:24:45.538Z,11.30
2023-01-03T00:27:14.613Z,11.20
2023-01-03T00:29:44.332Z,11.20
2023-01-03T00:32:13.594Z,11.20
2023-01-03T00:34:47.708Z,11.20
2023-01-03T00:37:16.611Z,11.10
2023-01-03T00:39:45.599Z,11.20
2023-01-03T00:42:13.826Z,11.20
2023-01-03T00:44:43.524Z,11.20
2023-01-03T00:47:15.475Z,11.20
2023-01-03T00:49:44.602Z,11.20
2023-01-03T00:52:12.983Z,11.20
2023-01-03T00:54:41.591Z,11.10
2023-01-03T00:57:09.805Z,11.20
2023-01-03T00:59:37.953Z,11.20
2023-01-03T01:02:09.724Z,11.10
2023-01-03T01:04:38.299Z,11.10
2023-01-03T01:07:06.413Z,11.00
2023-01-03T01:09:37.606Z,11.00
2023-01-03T01:12:10.287Z,11.10
2023-01-03T01:14:38.645Z,11.10
2023-01-03T01:17:09.612Z,11.20
2023-01-03T01:19:44.631Z,11.20
2023-01-03T01:22:13.577Z,11.20
2023-01-03T01:24:42.421Z,11.30
2023-01-03T01:27:10.647Z,11.30
2023-01-03T01:32:34.587Z,11.30
2023-01-03T01:35:05.679Z,11.40
2023-01-03T01:37:34.600Z,11.40
2023-01-03T01:40:03.559Z,11.40
2023-01-03T01:42:49.904Z,11.40
2023-01-03T01:45:21.299Z,11.50
2023-01-03T01:47:55.734Z,11.50
2023-01-03T01:50:33.734Z,11.60
2023-01-03T01:53:11.512Z,11.60
2023-01-03T01:55:45.657Z,11.60
2023-01-03T01:58:18.249Z,11.70
2023-01-03T02:00:49.325Z,11.70
2023-01-03T02:03:18.965Z,11.70
2023-01-03T02:05:51.447Z,11.70
2023-01-03T02:08:20.629Z,11.70
2023-01-03T02:11:22.470Z,11.70
2023-01-03T02:13:58.636Z,11.70
2023-01-03T02:16:43.551Z,11.70
2023-01-03T02:19:48.644Z,11.70
2023-01-03T02:22:41.571Z,11.80
2023-01-03T02:25:40.455Z,11.80
2023-01-03T02:28:44.676Z,11.80
2023-01-03T02:31:25.600Z,11.80
2023-01-03T02:34:00.444Z,11.80
2023-01-03T02:36:37.723Z,11.80
2023-01-03T02:39:13.436Z,11.80
2023-01-03T02:41:46.634Z,11.80
2023-01-03T02:44:23.636Z,11.70
2023-01-03T02:46:58.713Z,11.70
2023-01-03T02:49:33.648Z,11.70
2023-01-03T02:52:06.497Z,11.70
2023-01-03T02:54:40.637Z,11.60
2023-01-03T02:57:12.488Z,11.60
2023-01-03T02:59:47.713Z,11.60
2023-01-03T03:02:19.901Z,11.60
2023-01-03T03:04:53.658Z,11.50
2023-01-03T03:07:26.085Z,11.50
2023-01-03T03:10:14.291Z,11.50
2023-01-03T03:13:06.445Z,11.40
2023-01-03T03:15:43.005Z,11.40
2023-01-03T03:18:16.097Z,11.40
2023-01-03T03:21:03.321Z,11.40
2023-01-03T03:23:53.992Z,11.40
2023-01-03T03:26:27.225Z,11.30
2023-01-03T03:29:00.667Z,11.30
2023-01-03T03:31:33.738Z,11.20
2023-01-03T03:34:08.930Z,11.20
2023-01-03T03:36:47.006Z,11.20
2023-01-03T03:39:35.455Z,11.20
2023-01-03T03:42:33.722Z,11.20
2023-01-03T03:45:10.683Z,11.10
2023-01-03T03:47:46.657Z,11.10
2023-01-03T03:50:24.512Z,11.00
2023-01-03T03:52:56.893Z,11.00
2023-01-03T03:55:29.487Z,11.00
2023-01-03T03:58:02.153Z,11.00
2023-01-03T04:00:34.847Z,10.90
2023-01-03T04:03:05.825Z,10.90
2023-01-03T04:05:40.575Z,10.90
2023-01-03T04:08:10.367Z,10.80
2023-01-03T04:10:39.704Z,10.80
2023-01-03T04:13:08.661Z,10.80
2023-01-03T04:15:36.904Z,10.80
2023-01-03T04:18:05.428Z,10.70
2023-01-03T04:20:35.663Z,10.70
2023-01-03T04:23:05.742Z,10.70
2023-01-03T04:25:35.207Z,10.60
2023-01-03T04:28:03.457Z,10.60
2023-01-03T04:30:31.562Z,10.60
2023-01-03T04:33:06.346Z,10.60
2023-01-03T04:35:37.653Z,10.60
2023-01-03T04:38:09.327Z,10.60
2023-01-03T04:40:39.101Z,10.50
2023-01-03T04:43:25.244Z,10.40
2023-01-03T04:45:53.545Z,10.40
2023-01-03T04:48:22.681Z,10.40
2023-01-03T04:50:57.737Z,10.40
2023-01-03T04:53:27.752Z,10.30
2023-01-03T04:55:56.801Z,10.30
2023-01-03T04:58:25.705Z,10.30
2023-01-03T05:00:53.947Z,10.30
2023-01-03T05:03:27.574Z,10.30
2023-01-03T05:06:01.492Z,10.20
2023-01-03T05:08:29.816Z,10.20
2023-01-03T05:10:58.004Z,10.10
2023-01-03T05:13:27.682Z,10.10
2023-01-03T05:15:55.996Z,10.00
2023-01-03T05:18:24.704Z,10.10
2023-01-03T05:21:11.352Z,10.10
2023-01-03T05:24:00.178Z,10.00
2023-01-03T05:26:28.358Z,10.00
2023-01-03T05:28:56.852Z,10.00
2023-01-03T05:31:25.134Z,9.90
2023-01-03T05:33:54.725Z,9.90
2023-01-03T05:36:24.455Z,9.80
2023-01-03T05:38:54.067Z,9.80
2023-01-03T05:41:36.586Z,9.80
2023-01-03T05:44:05.015Z,9.70
2023-01-03T05:46:33.418Z,9.70
2023-01-03T05:49:02.601Z,9.60
2023-01-03T05:51:33.369Z,9.60
2023-01-03T05:54:03.735Z,9.60
2023-01-03T05:56:32.577Z,9.50
2023-01-03T05:59:01.784Z,9.50
2023-01-03T06:01:29.969Z,9.40
2023-01-03T06:04:01.543Z,9.40
2023-01-03T06:06:29.763Z,9.40
2023-01-03T06:08:58.718Z,9.30
2023-01-03T06:11:29.586Z,9.30
2023-01-03T06:13:58.173Z,9.20
2023-01-03T06:16:45.649Z,9.20
2023-01-03T06:19:14.987Z,9.20
2023-01-03T06:21:43.596Z,9.10
2023-01-03T06:24:12.100Z,9.20
2023-01-03T06:26:41.581Z,9.20
2023-01-03T06:29:10.787Z,9.20
2023-01-03T06:31:39.396Z,9.20
2023-01-03T06:34:07.556Z,9.20
2023-01-03T06:36:37.618Z,9.20
2023-01-03T06:39:06.758Z,9.20
2023-01-03T06:41:35.418Z,9.20
2023-01-03T06:44:05.736Z,9.20
2023-01-03T06:46:53.715Z,9.20
2023-01-03T06:49:40.655Z,9.20
2023-01-03T06:52:32.120Z,9.30
2023-01-03T06:55:00.541Z,9.20
2023-01-03T06:57:28.763Z,9.20
2023-01-03T07:00:02.808Z,9.20
2023-01-03T07:02:31.068Z,9.20
2023-01-03T07:04:59.777Z,9.20
2023-01-03T07:07:28.619Z,9.20
2023-01-03T07:09:59.101Z,9.20
2023-01-03T07:12:49.380Z,9.20
2023-01-03T07:15:23.147Z,9.20
2023-01-03T07:17:51.771Z,9.20
2023-01-03T07:20:21.048Z,9.20
2023-01-03T07:22:49.764Z,9.20
2023-01-03T07:25:18.240Z,9.20
2023-01-03T07:28:03.624Z,9.20
2023-01-03T07:30:39.183Z,9.30
2023-01-03T07:33:09.252Z,9.20
2023-01-03T07:36:07.620Z,9.20
2023-01-03T07:38:41.101Z,9.20
2023-01-03T07:41:10.780Z,9.20
2023-01-03T07:43:42.632Z,9.20
2023-01-03T07:46:15.819Z,9.20
2023-01-03T07:48:45.861Z,9.20
2023-01-03T07:51:16.487Z,9.20
2023-01-03T07:53:46.767Z,9.30
2023-01-03T07:56:16.883Z,9.30
2023-01-03T07:58:46.853Z,9.20
2023-01-03T08:01:18.576Z,9.20
2023-01-03T08:03:48.510Z,9.20
2023-01-03T08:06:18.834Z,9.20
2023-01-03T08:09:08.885Z,9.20
2023-01-03T08:11:55.672Z,9.20
2023-01-03T08:14:26.808Z,9.20
2023-01-03T08:16:59.834Z,9.20
2023-01-03T08:19:28.159Z,9.20
2023-01-03T08:21:59.910Z,9.20
2023-01-03T08:24:28.789Z,9.20
2023-01-03T08:27:00.634Z,9.20
2023-01-03T08:29:29.765Z,9.20
2023-01-03T08:32:02.940Z,9.30
2023-01-03T08:34:37.891Z,9.30
2023-01-03T08:37:10.997Z,9.40
2023-01-03T08:39:47.826Z,9.30
2023-01-03T08:42:20.666Z,9.40
2023-01-03T08:44:51.838Z,9.40
2023-01-03T08:47:22.271Z,9.40
2023-01-03T08:49:51.859Z,9.40
2023-01-03T08:52:20.442Z,9.40
2023-01-03T08:54:52.469Z,9.50
2023-01-03T08:57:20.624Z,9.40
2023-01-03T08:59:49.807Z,9.40
2023-01-03T09:02:18.744Z,9.40
2023-01-03T09:04:48.579Z,9.40
2023-01-03T09:07:20.144Z,9.40
2023-01-03T09:09:48.801Z,9.40
2023-01-03T09:12:17.665Z,9.40
2023-01-03T09:14:47.071Z,9.40
2023-01-03T09:17:15.201Z,9.40
2023-01-03T09:19:47.047Z,9.40
2023-01-03T09:22:16.607Z,9.40
2023-01-03T09:24:44.825Z,9.50
2023-01-03T09:27:14.698Z,9.40
2023-01-03T09:29:43.823Z,9.40
2023-01-03T09:32:16.256Z,9.40
2023-01-03T09:34:44.502Z,9.40
2023-01-03T09:37:12.870Z,9.40
2023-01-03T09:39:42.852Z,9.40
2023-01-03T09:42:37.937Z,9.40
2023-01-03T09:45:08.861Z,9.40
2023-01-03T09:47:41.039Z,9.40
2023-01-03T09:50:31.874Z,9.40
2023-01-03T09:53:33.670Z,9.40
2023-01-03T09:56:28.233Z,9.40
2023-01-03T09:59:19.660Z,9.40
2023-01-03T10:02:18.707Z,9.30
2023-01-03T10:05:22.092Z,9.30
2023-01-03T10:08:13.501Z,9.40
2023-01-03T10:10:52.704Z,9.40
2023-01-03T10:13:51.103Z,9.40
2023-01-03T10:16:28.115Z,9.40
2023-01-03T10:19:13.083Z,9.40
2023-01-03T10:21:53.860Z,9.40
2023-01-03T10:24:27.091Z,9.40
2023-01-03T10:26:58.205Z,9.50
2023-01-03T10:29:34.055Z,9.50
2023-01-03T10:32:19.895Z,9.40
2023-01-03T10:35:04.845Z,9.30
2023-01-03T10:37:33.921Z,9.20
2023-01-03T10:40:06.666Z,9.10
2023-01-03T10:42:41.174Z,9.00
2023-01-03T10:45:17.427Z,9.10
2023-01-03T10:47:58.853Z,9.10
2023-01-03T10:50:27.434Z,9.10
2023-01-03T10:53:03.519Z,9.10
2023-01-03T10:55:34.175Z,9.00
2023-01-03T10:58:05.345Z,9.00
2023-01-03T11:00:39.712Z,8.90
2023-01-03T11:03:20.018Z,8.90
2023-01-03T11:05:50.714Z,8.90
2023-01-03T11:08:27.447Z,8.80
2023-01-03T11:10:58.689Z,8.80
2023-01-03T11:13:35.461Z,8.80
2023-01-03T11:16:14.757Z,8.80
2023-01-03T11:18:44.924Z,8.80
2023-01-03T11:21:23.227Z,8.90
2023-01-03T11:24:15.942Z,8.90
2023-01-03T11:26:51.334Z,8.90
2023-01-03T11:29:46.626Z,8.90
2023-01-03T11:32:26.747Z,8.80
2023-01-03T11:35:24.015Z,8.80
2023-01-03T11:38:03.531Z,8.80
2023-01-03T11:40:46.716Z,8.80
2023-01-03T11:43:26.816Z,8.90
2023-01-03T11:46:18.824Z,8.90
2023-01-03T11:49:04.928Z,9.00
2023-01-03T11:51:39.583Z,9.10
2023-01-03T11:54:53.001Z,9.10
2023-01-03T11:57:29.236Z,9.20
2023-01-03T12:00:09.836Z,9.20
2023-01-03T12:03:02.221Z,9.30
2023-01-03T12:05:50.776Z,9.30
2023-01-03T12:08:41.991Z,9.30
2023-01-03T12:11:32.038Z,9.30
2023-01-03T12:14:09.084Z,9.30
2023-01-03T12:16:44.559Z,9.30
2023-01-03T12:19:27.626Z,9.30
2023-01-03T12:22:04.733Z,9.20
2023-01-03T12:24:44.259Z,9.10
2023-01-03T12:27:20.753Z,9.10
2023-01-03T12:29:59.046Z,9.10
2023-01-03T12:32:35.016Z,9.10
2023-01-03T12:35:20.939Z,9.20
2023-01-03T12:37:52.224Z,9.30
2023-01-03T12:40:56.199Z,9.20
2023-01-03T12:43:31.955Z,9.30
2023-01-03T12:46:12.094Z,9.40
2023-01-03T12:48:59.963Z,9.40
2023-01-03T12:51:30.212Z,9.40
2023-01-03T12:54:14.908Z,9.30
2023-01-03T12:57:05.169Z,9.30
2023-01-03T13:00:08.338Z,9.10
2023-01-03T13:02:46.101Z,9.00
2023-01-03T13:05:19.969Z,8.90
2023-01-03T13:07:53.972Z,8.80
2023-01-03T13:10:27.673Z,8.70
2023-01-03T13:12:57.037Z,8.60
2023-01-03T13:15:36.201Z,8.50
2023-01-03T13:18:37.771Z,8.40
2023-01-03T13:21:43.897Z,8.30
2023-01-03T13:24:34.220Z,8.20
2023-01-03T13:27:36.341Z,8.10
2023-01-03T13:30:21.932Z,8.10
2023-01-03T13:33:00.316Z,8.10
2023-01-03T13:35:37.028Z,8.00
2023-01-03T13:38:24.426Z,8.00
2023-01-03T13:43:50.033Z,7.90
2023-01-03T13:46:25.749Z,7.90
2023-01-03T13:48:58.945Z,7.90
2023-01-03T13:51:49.945Z,7.90
2023-01-03T13:55:07.161Z,7.90
2023-01-03T13:57:54.345Z,7.90
2023-01-03T14:00:25.968Z,7.80
2023-01-03T14:03:21.575Z,7.80
2023-01-03T14:06:33.110Z,7.80
2023-01-03T14:09:43.062Z,7.70
2023-01-03T14:12:42.972Z,7.70
2023-01-03T14:15:25.386Z,7.60
2023-01-03T14:17:59.964Z,7.50
2023-01-03T14:20:36.323Z,7.50
2023-01-03T14:23:48.683Z,7.50
2023-01-03T14:26:07.724Z,7.40
2023-01-03T14:28:39.917Z,7.40
2023-01-03T14:31:19.970Z,7.40
2023-01-03T14:33:54.782Z,7.40
2023-01-03T14:36:23.966Z,7.30
2023-01-03T14:38:55.615Z,7.30
2023-01-03T14:41:30.967Z,7.30
2023-01-03T14:44:03.608Z,7.30
2023-01-03T14:46:35.987Z,7.10
2023-01-03T14:49:17.722Z,7.10
2023-01-03T14:51:46.978Z,7.10
2023-01-03T14:54:18.901Z,7.10
2023-01-03T14:56:50.924Z,7.00
2023-01-03T14:59:22.818Z,7.00
2023-01-03T15:01:55.031Z,7.00
2023-01-03T15:04:26.486Z,7.00
2023-01-03T15:07:06.359Z,6.90
2023-01-03T15:09:43.362Z,6.80
2023-01-03T15:12:16.395Z,6.80
2023-01-03T15:14:44.975Z,6.80
2023-01-03T15:17:19.425Z,6.70
2023-01-03T15:19:54.025Z,6.70
2023-01-03T15:22:24.329Z,6.70
2023-01-03T15:25:03.968Z,6.70
2023-01-03T15:27:42.594Z,6.70
2023-01-03T15:30:23.442Z,6.70
2023-01-03T15:33:00.049Z,6.60
2023-01-03T15:35:38.446Z,6.60
2023-01-03T15:38:13.541Z,6.60
2023-01-03T15:40:42.119Z,6.60
2023-01-03T15:43:23.400Z,6.60
2023-01-03T15:46:03.606Z,6.60
2023-01-03T15:48:39.273Z,6.50
2023-01-03T15:51:09.989Z,6.50
2023-01-03T15:53:47.398Z,6.50
2023-01-03T15:56:19.463Z,6.40
2023-01-03T15:58:55.394Z,6.40
2023-01-03T16:01:25.577Z,6.40
2023-01-03T16:03:54.914Z,6.40
2023-01-03T16:06:24.812Z,6.40
2023-01-03T16:08:53.063Z,6.40
2023-01-03T16:11:29.654Z,6.40
2023-01-03T16:14:04.798Z,6.40
2023-01-03T16:16:36.542Z,6.50
2023-01-03T16:19:07.216Z,6.50
2023-01-03T16:21:40.430Z,6.50
2023-01-03T16:24:10.231Z,6.50
2023-01-03T16:26:38.344Z,6.50
2023-01-03T16:29:10.468Z,6.50
2023-01-03T16:31:40.093Z,6.50
2023-01-03T16:34:14.778Z,6.50
2023-01-03T16:36:44.707Z,6.50
2023-01-03T16:39:20.578Z,6.50
2023-01-03T16:42:03.900Z,6.50
2023-01-03T16:44:35.576Z,6.50
2023-01-03T16:47:05.008Z,6.50
2023-01-03T16:49:37.493Z,6.40
2023-01-03T16:52:07.490Z,6.40
2023-01-03T16:54:36.339Z,6.30
2023-01-03T16:57:04.699Z,6.30
2023-01-03T16:59:33.506Z,6.30
2023-01-03T17:02:04.439Z,6.20
2023-01-03T17:04:32.862Z,6.20
2023-01-03T17:07:01.021Z,6.10
2023-01-03T17:09:35.772Z,6.00
2023-01-03T17:12:05.042Z,6.00
2023-01-03T17:14:38.189Z,6.00
2023-01-03T17:17:10.914Z,5.90
2023-01-03T17:22:29.881Z,5.90
2023-01-03T17:24:59.604Z,5.90
2023-01-03T17:27:31.852Z,5.90
2023-01-03T17:30:05.413Z,5.80
2023-01-03T17:32:34.101Z,5.80
2023-01-03T17:35:05.614Z,5.70
2023-01-03T17:37:57.761Z,5.70
2023-01-03T17:40:33.256Z,5.60
2023-01-03T17:43:03.045Z,5.60
2023-01-03T17:45:48.720Z,5.50
2023-01-03T17:48:35.286Z,5.50
2023-01-03T17:51:03.795Z,5.40
2023-01-03T17:53:32.021Z,5.40
2023-01-03T17:56:01.755Z,5.40
2023-01-03T17:58:34.680Z,5.40
2023-01-03T18:01:03.325Z,5.40
2023-01-03T18:03:31.639Z,5.40
2023-01-03T18:06:04.036Z,5.40
2023-01-03T18:08:32.315Z,5.40
2023-01-03T18:11:01.910Z,5.40
2023-01-03T18:13:33.852Z,5.50
2023-01-03T18:16:02.139Z,5.40
2023-01-03T18:18:30.870Z,5.40
2023-01-03T18:20:59.614Z,5.40
2023-01-03T18:23:33.161Z,5.40
2023-01-03T18:26:05.571Z,5.40
2023-01-03T18:28:37.782Z,5.50
2023-01-03T18:31:07.332Z,5.50
2023-01-03T18:33:35.685Z,5.50
2023-01-03T18:36:04.045Z,5.50
2023-01-03T18:38:36.723Z,5.50
2023-01-03T18:41:06.564Z,5.50
2023-01-03T18:43:36.043Z,5.50
2023-01-03T18:46:05.000Z,5.50
2023-01-03T18:48:33.394Z,5.50
2023-01-03T18:51:02.082Z,5.60
2023-01-03T18:53:33.876Z,5.60
2023-01-03T18:56:03.097Z,5.60
2023-01-03T18:58:40.406Z,5.50
2023-01-03T19:01:08.852Z,5.60
2023-01-03T19:03:42.595Z,5.60
2023-01-03T19:06:19.059Z,5.60
2023-01-03T19:08:47.964Z,5.60
2023-01-03T19:11:18.683Z,5.50
2023-01-03T19:13:55.642Z,5.50
2023-01-03T19:16:26.142Z,5.50
2023-01-03T19:18:54.978Z,5.50
2023-01-03T19:21:25.474Z,5.50
2023-01-03T19:24:00.855Z,5.50
2023-01-03T19:26:34.193Z,5.50
2023-01-03T19:29:06.939Z,5.50
2023-01-03T19:31:42.082Z,5.50
2023-01-03T19:34:18.172Z,5.50
2023-01-03T19:36:49.696Z,5.50
2023-01-03T19:39:24.743Z,5.50
2023-01-03T19:42:15.783Z,5.60
2023-01-03T19:44:45.719Z,5.60
2023-01-03T19:47:16.475Z,5.60
2023-01-03T19:49:47.208Z,5.50
2023-01-03T19:52:18.116Z,5.50
2023-01-03T19:54:46.609Z,5.40
2023-01-03T19:57:21.299Z,5.40
2023-01-03T19:59:53.777Z,5.40
2023-01-03T20:02:36.182Z,5.40
2023-01-03T20:05:08.025Z,5.40
2023-01-03T20:07:37.938Z,5.40
2023-01-03T20:10:07.035Z,5.30
2023-01-03T20:12:35.405Z,5.30
2023-01-03T20:15:07.518Z,5.30
2023-01-03T20:17:36.190Z,5.30
2023-01-03T20:20:05.618Z,5.30
2023-01-03T20:25:28.171Z,5.40
2023-01-03T20:27:59.601Z,5.30
2023-01-03T20:30:30.927Z,5.30
2023-01-03T20:32:59.668Z,5.40
2023-01-03T20:38:24.880Z,5.40
2023-01-03T20:40:53.687Z,5.40
2023-01-03T20:43:23.674Z,5.40
2023-01-03T20:45:56.013Z,5.40
2023-01-03T20:48:26.642Z,5.40
2023-01-03T20:50:57.912Z,5.30
2023-01-03T20:53:28.042Z,5.40
2023-01-03T20:55:56.351Z,5.30
2023-01-03T20:58:27.850Z,5.30
2023-01-03T21:01:04.670Z,5.30
2023-01-03T21:03:36.341Z,5.30
2023-01-03T21:06:12.645Z,5.30
2023-01-03T21:08:55.559Z,5.30
2023-01-03T21:11:29.069Z,5.30
2023-01-03T21:13:59.261Z,5.40
2023-01-03T21:16:34.547Z,5.30
2023-01-03T21:19:05.352Z,5.20
2023-01-03T21:21:34.901Z,5.30
2023-01-03T21:24:03.692Z,5.20
2023-01-03T21:26:32.223Z,5.30
2023-01-03T21:29:01.495Z,5.30
2023-01-03T21:31:29.964Z,5.30
2023-01-03T21:34:00.159Z,5.30
2023-01-03T21:36:30.385Z,5.30
2023-01-03T21:39:00.150Z,5.30
2023-01-03T21:41:31.484Z,5.30
2023-01-03T21:44:03.327Z,5.20
2023-01-03T21:46:32.226Z,5.20
2023-01-03T21:49:01.793Z,5.30
2023-01-03T21:51:38.735Z,5.30
2023-01-03T21:54:08.736Z,5.30
2023-01-03T21:56:46.822Z,5.30
2023-01-03T21:59:16.398Z,5.30
2023-01-03T22:02:02.718Z,5.30
2023-01-03T22:04:33.199Z,5.30
2023-01-03T22:07:02.157Z,5.40
2023-01-03T22:09:50.155Z,5.40
2023-01-03T22:12:21.573Z,5.40
2023-01-03T22:14:49.902Z,5.50
2023-01-03T22:17:18.219Z,5.50
2023-01-03T22:19:47.789Z,5.50
2023-01-03T22:22:16.171Z,5.50
2023-01-03T22:24:44.367Z,5.60
2023-01-03T22:27:12.649Z,5.60
2023-01-03T22:29:42.477Z,5.50
2023-01-03T22:32:10.856Z,5.40
2023-01-03T22:34:39.672Z,5.40
2023-01-03T22:37:12.270Z,5.30
2023-01-03T22:39:40.657Z,5.40
2023-01-03T22:42:17.699Z,5.40
2023-01-03T22:44:47.780Z,5.30
2023-01-03T22:47:17.106Z,5.40
2023-01-03T22:49:45.970Z,5.40
2023-01-03T22:52:16.300Z,5.30
2023-01-03T22:54:44.632Z,5.20
2023-01-03T22:57:12.836Z,5.20
2023-01-03T22:59:41.331Z,5.30
2023-01-03T23:02:10.440Z,5.20
2023-01-03T23:04:39.398Z,5.20
2023-01-03T23:07:07.604Z,5.20
2023-01-03T23:09:38.224Z,5.10
2023-01-03T23:12:24.213Z,5.10
2023-01-03T23:14:52.311Z,5.10
2023-01-03T23:17:40.063Z,5.00
2023-01-03T23:20:09.102Z,5.10
2023-01-03T23:22:40.381Z,5.00
2023-01-03T23:25:11.001Z,5.10
2023-01-03T23:27:39.315Z,5.10
2023-01-03T23:30:08.580Z,5.10
2023-01-03T23:32:37.178Z,5.00
2023-01-03T23:35:08.459Z,5.10
2023-01-03T23:37:37.287Z,5.00
2023-01-03T23:40:06.165Z,5.00
2023-01-03T23:42:37.183Z,5.00
2023-01-03T23:45:06.469Z,5.00
2023-01-03T23:47:37.469Z,4.90
2023-01-03T23:50:06.116Z,4.90
2023-01-03T23:52:35.567Z,4.90
2023-01-03T23:55:10.225Z,4.90
2023-01-03T23:57:42.685Z,4.90
